createdAt,value
2022-09-18T00:01:31.388Z,8.17
2022-09-18T00:04:01.249Z,12.73
2022-09-18T00:06:31.788Z,8.93
2022-09-18T00:09:00.469Z,11.13
2022-09-18T00:11:30.067Z,8.93
2022-09-18T00:13:56.779Z,7.37
2022-09-18T00:16:25.226Z,11.93
2022-09-18T00:18:52.752Z,12.47
2022-09-18T00:21:21.913Z,11.37
2022-09-18T00:23:48.764Z,12.90
2022-09-18T00:26:18.425Z,8.27
2022-09-18T00:28:46.203Z,15.80
2022-09-18T00:31:22.177Z,12.17
2022-09-18T00:33:48.718Z,13.70
2022-09-18T00:36:18.248Z,8.53
2022-09-18T00:38:45.556Z,12.60
2022-09-18T00:41:18.510Z,9.00
2022-09-18T00:43:45.607Z,11.57
2022-09-18T00:46:26.209Z,12.57
2022-09-18T00:49:11.285Z,11.13
2022-09-18T00:51:40.044Z,9.97
2022-09-18T00:54:17.858Z,13.57
2022-09-18T00:56:45.759Z,11.37
2022-09-18T00:59:15.630Z,15.03
2022-09-18T01:01:42.192Z,11.27
2022-09-18T01:04:12.413Z,14.17
2022-09-18T01:06:54.384Z,10.70
2022-09-18T01:09:29.593Z,10.67
2022-09-18T01:12:08.756Z,8.57
2022-09-18T01:14:56.259Z,11.87
2022-09-18T01:17:28.831Z,9.77
2022-09-18T01:20:17.721Z,11.50
2022-09-18T01:23:17.803Z,16.20
2022-09-18T01:26:04.363Z,12.30
2022-09-18T01:28:44.773Z,9.57
2022-09-18T01:31:20.781Z,12.33
2022-09-18T01:33:51.457Z,7.10
2022-09-18T01:36:21.778Z,12.97
2022-09-18T01:39:13.550Z,8.80
2022-09-18T01:41:41.909Z,9.20
2022-09-18T01:44:20.763Z,10.97
2022-09-18T01:46:49.762Z,13.00
2022-09-18T01:49:24.434Z,9.83
2022-09-18T01:51:57.058Z,9.20
2022-09-18T01:54:28.090Z,14.90
2022-09-18T01:56:59.462Z,10.10
2022-09-18T01:59:35.338Z,10.43
2022-09-18T02:02:06.252Z,14.30
2022-09-18T02:04:36.298Z,11.37
2022-09-18T02:07:10.015Z,9.57
2022-09-18T02:09:36.543Z,12.77
2022-09-18T02:12:06.193Z,7.77
2022-09-18T02:14:38.870Z,14.77
2022-09-18T02:17:29.948Z,8.50
2022-09-18T02:20:00.874Z,10.77
2022-09-18T02:22:32.380Z,11.10
2022-09-18T02:25:04.809Z,14.30
2022-09-18T02:27:34.035Z,12.60
2022-09-18T02:30:03.417Z,9.53
2022-09-18T02:32:30.159Z,9.53
2022-09-18T02:34:56.995Z,8.07
2022-09-18T02:37:54.777Z,8.20
2022-09-18T02:40:38.044Z,15.30
2022-09-18T02:43:36.285Z,9.33
2022-09-18T02:46:15.084Z,12.50
2022-09-18T02:49:11.845Z,10.67
2022-09-18T02:51:52.878Z,5.73
2022-09-18T02:54:30.142Z,7.57
2022-09-18T02:57:02.203Z,6.37
2022-09-18T02:59:51.639Z,8.37
2022-09-18T03:02:21.188Z,6.73
2022-09-18T03:04:48.005Z,9.00
2022-09-18T03:07:15.968Z,9.63
2022-09-18T03:09:43.188Z,7.60
2022-09-18T03:12:10.191Z,6.57
2022-09-18T03:14:36.721Z,7.43
2022-09-18T03:17:03.761Z,8.60
2022-09-18T03:19:30.254Z,6.83
2022-09-18T03:21:57.884Z,5.00
2022-09-18T03:24:25.517Z,5.90
2022-09-18T03:26:53.037Z,11.40
2022-09-18T03:29:19.815Z,7.37
2022-09-18T03:31:47.051Z,7.43
2022-09-18T03:34:13.595Z,7.60
2022-09-18T03:36:40.105Z,8.73
2022-09-18T03:39:06.598Z,9.97
2022-09-18T03:41:33.594Z,6.00
2022-09-18T03:44:00.117Z,10.57
2022-09-18T03:46:26.692Z,7.77
2022-09-18T03:48:53.739Z,12.57
2022-09-18T03:51:21.219Z,8.13
2022-09-18T03:53:48.931Z,10.47
2022-09-18T03:56:15.641Z,6.83
2022-09-18T03:58:42.425Z,7.17
2022-09-18T04:01:09.451Z,7.23
2022-09-18T04:03:36.008Z,11.83
2022-09-18T04:06:02.870Z,10.33
2022-09-18T04:08:29.633Z,11.37
2022-09-18T04:10:56.209Z,5.67
2022-09-18T04:13:22.701Z,6.33
2022-09-18T04:15:50.489Z,5.93
2022-09-18T04:18:17.994Z,8.00
2022-09-18T04:20:45.313Z,7.70
2022-09-18T04:23:14.388Z,6.93
2022-09-18T04:25:42.007Z,4.67
2022-09-18T04:28:09.127Z,7.33
2022-09-18T04:30:36.196Z,7.33
2022-09-18T04:33:02.794Z,4.50
2022-09-18T04:35:29.518Z,8.60
2022-09-18T04:37:56.170Z,6.13
2022-09-18T04:40:22.814Z,5.53
2022-09-18T04:42:49.362Z,10.17
2022-09-18T04:45:16.081Z,9.60
2022-09-18T04:47:45.732Z,5.33
2022-09-18T04:50:12.339Z,8.40
2022-09-18T04:52:39.006Z,5.60
2022-09-18T04:55:05.962Z,7.63
2022-09-18T04:57:32.731Z,8.17
2022-09-18T04:59:59.208Z,9.40
2022-09-18T05:02:25.832Z,7.43
2022-09-18T05:04:52.410Z,10.73
2022-09-18T05:07:18.950Z,10.20
2022-09-18T05:09:45.908Z,5.73
2022-09-18T05:12:12.446Z,9.23
2022-09-18T05:14:39.109Z,6.23
2022-09-18T05:17:06.012Z,10.23
2022-09-18T05:19:32.485Z,9.27
2022-09-18T05:21:59.006Z,12.40
2022-09-18T05:24:25.752Z,8.33
2022-09-18T05:26:52.251Z,8.30
2022-09-18T05:29:18.734Z,13.93
2022-09-18T05:31:45.349Z,13.10
2022-09-18T05:34:11.867Z,9.07
2022-09-18T05:36:38.603Z,9.57
2022-09-18T05:39:05.092Z,7.87
2022-09-18T05:41:31.619Z,8.70
2022-09-18T05:43:58.163Z,6.87
2022-09-18T05:46:24.722Z,8.77
2022-09-18T05:48:51.590Z,11.23
2022-09-18T05:51:18.213Z,6.37
2022-09-18T05:53:48.450Z,6.90
2022-09-18T05:56:16.431Z,5.27
2022-09-18T05:58:43.249Z,9.00
2022-09-18T06:01:10.384Z,7.40
2022-09-18T06:03:36.869Z,9.90
2022-09-18T06:06:03.522Z,6.50
2022-09-18T06:08:30.048Z,6.27
2022-09-18T06:11:00.721Z,6.67
2022-09-18T06:13:27.228Z,6.30
2022-09-18T06:15:53.886Z,6.23
2022-09-18T06:18:20.552Z,7.67
2022-09-18T06:20:55.898Z,7.40
2022-09-18T06:23:24.142Z,9.93
2022-09-18T06:26:05.989Z,10.87
2022-09-18T06:28:34.177Z,9.47
2022-09-18T06:31:02.936Z,10.17
2022-09-18T06:33:29.489Z,7.87
2022-09-18T06:35:56.125Z,8.13
2022-09-18T06:38:22.625Z,9.97
2022-09-18T06:40:50.806Z,9.13
2022-09-18T06:43:18.219Z,9.93
2022-09-18T06:45:50.290Z,11.63
2022-09-18T06:48:16.823Z,6.57
2022-09-18T06:50:43.305Z,10.83
2022-09-18T06:53:12.694Z,11.67
2022-09-18T06:55:39.467Z,7.33
2022-09-18T06:58:06.378Z,12.57
2022-09-18T07:00:36.161Z,9.17
2022-09-18T07:03:04.010Z,9.23
2022-09-18T07:05:31.787Z,5.77
2022-09-18T07:07:59.259Z,6.57
2022-09-18T07:10:26.415Z,7.23
2022-09-18T07:13:02.602Z,8.13
2022-09-18T07:15:29.307Z,12.80
2022-09-18T07:18:01.027Z,13.03
2022-09-18T07:20:28.431Z,9.47
2022-09-18T07:22:57.228Z,10.17
2022-09-18T07:25:25.048Z,10.80
2022-09-18T07:27:51.831Z,10.77
2022-09-18T07:30:19.092Z,6.27
2022-09-18T07:32:45.679Z,7.17
2022-09-18T07:35:13.607Z,7.77
2022-09-18T07:37:40.361Z,8.53
2022-09-18T07:40:09.049Z,6.57
2022-09-18T07:42:35.836Z,7.87
2022-09-18T07:45:02.331Z,8.13
2022-09-18T07:47:32.314Z,10.70
2022-09-18T07:49:58.799Z,8.03
2022-09-18T07:52:25.623Z,12.30
2022-09-18T07:54:52.116Z,8.80
2022-09-18T07:57:18.676Z,9.90
2022-09-18T07:59:45.265Z,12.33
2022-09-18T08:02:13.325Z,9.80
2022-09-18T08:04:40.011Z,9.97
2022-09-18T08:07:08.070Z,7.93
2022-09-18T08:09:37.031Z,7.77
2022-09-18T08:12:06.375Z,6.00
2022-09-18T08:14:34.022Z,9.67
2022-09-18T08:17:11.606Z,8.93
2022-09-18T08:19:38.841Z,7.73
2022-09-18T08:22:08.208Z,9.87
2022-09-18T08:24:34.854Z,9.40
2022-09-18T08:27:06.536Z,13.20
2022-09-18T08:29:33.828Z,10.53
2022-09-18T08:32:00.865Z,9.80
2022-09-18T08:34:27.441Z,7.73
2022-09-18T08:36:57.746Z,5.63
2022-09-18T08:39:26.821Z,4.93
2022-09-18T08:42:28.749Z,5.83
2022-09-18T08:45:40.508Z,9.40
2022-09-18T08:48:44.481Z,8.63
2022-09-18T08:51:28.707Z,8.10
2022-09-18T08:54:06.270Z,7.40
2022-09-18T08:56:33.919Z,8.07
2022-09-18T08:59:06.027Z,5.47
2022-09-18T09:01:40.798Z,7.33
2022-09-18T09:04:20.339Z,4.97
2022-09-18T09:07:03.921Z,11.87
2022-09-18T09:09:53.383Z,8.53
2022-09-18T09:12:31.874Z,3.27
2022-09-18T09:15:21.330Z,6.33
2022-09-18T09:17:49.778Z,8.50
2022-09-18T09:20:24.340Z,9.40
2022-09-18T09:23:02.300Z,7.00
2022-09-18T09:25:47.829Z,7.00
2022-09-18T09:28:19.835Z,7.80
2022-09-18T09:30:54.660Z,5.97
2022-09-18T09:33:23.650Z,6.73
2022-09-18T09:35:55.821Z,7.60
2022-09-18T09:38:53.232Z,8.40
2022-09-18T09:41:42.141Z,6.63
2022-09-18T09:44:23.798Z,6.83
2022-09-18T09:47:02.687Z,6.27
2022-09-18T09:49:33.942Z,6.57
2022-09-18T09:52:24.130Z,7.03
2022-09-18T09:54:55.606Z,4.63
2022-09-18T09:57:27.298Z,7.60
2022-09-18T10:00:05.419Z,8.00
2022-09-18T10:03:04.691Z,7.40
2022-09-18T10:05:55.529Z,8.97
2022-09-18T10:08:36.170Z,9.53
2022-09-18T10:11:08.951Z,9.60
2022-09-18T10:13:46.791Z,6.43
2022-09-18T10:16:18.504Z,7.30
2022-09-18T10:18:49.656Z,8.73
2022-09-18T10:21:21.292Z,7.03
2022-09-18T10:24:08.174Z,7.00
2022-09-18T10:26:48.845Z,4.90
2022-09-18T10:29:17.831Z,2.67
2022-09-18T10:31:59.372Z,3.00
2022-09-18T10:34:49.549Z,5.93
2022-09-18T10:37:31.090Z,4.33
2022-09-18T10:40:00.090Z,2.57
2022-09-18T10:42:29.282Z,2.90
2022-09-18T10:45:01.645Z,3.50
2022-09-18T10:47:31.929Z,3.93
2022-09-18T10:50:02.154Z,2.30
2022-09-18T10:52:40.085Z,6.00
2022-09-18T10:55:07.210Z,2.37
2022-09-18T10:57:33.651Z,5.97
2022-09-18T11:00:01.528Z,5.30
2022-09-18T11:02:33.978Z,3.60
2022-09-18T11:05:03.066Z,4.27
2022-09-18T11:07:30.173Z,4.83
2022-09-18T11:09:57.013Z,4.63
2022-09-18T11:12:29.147Z,2.90
2022-09-18T11:15:08.347Z,3.47
2022-09-18T11:17:47.768Z,3.13
2022-09-18T11:20:31.972Z,5.23
2022-09-18T11:23:23.309Z,4.13
2022-09-18T11:25:50.068Z,7.73
2022-09-18T11:28:44.039Z,3.57
2022-09-18T11:31:21.436Z,3.60
2022-09-18T11:33:54.001Z,2.77
2022-09-18T11:36:43.728Z,5.23
2022-09-18T11:39:23.899Z,3.90
2022-09-18T11:41:54.207Z,8.80
2022-09-18T11:44:31.582Z,8.40
2022-09-18T11:47:23.457Z,6.83
2022-09-18T11:49:57.623Z,6.70
2022-09-18T11:52:31.274Z,6.73
2022-09-18T11:55:43.328Z,6.73
2022-09-18T11:58:20.046Z,7.77
2022-09-18T12:00:56.835Z,9.67
2022-09-18T12:03:36.059Z,8.13
2022-09-18T12:06:31.443Z,5.80
2022-09-18T12:09:28.009Z,4.90
2022-09-18T12:12:18.187Z,7.63
2022-09-18T12:15:04.773Z,5.37
2022-09-18T12:17:43.760Z,6.20
2022-09-18T12:20:18.495Z,6.77
2022-09-18T12:22:51.222Z,5.40
2022-09-18T12:25:19.393Z,5.17
2022-09-18T12:28:06.287Z,5.97
2022-09-18T12:31:08.493Z,7.23
2022-09-18T12:33:54.799Z,8.13
2022-09-18T12:36:40.538Z,6.73
2022-09-18T12:39:21.155Z,7.33
2022-09-18T12:41:52.568Z,3.17
2022-09-18T12:44:25.234Z,3.97
2022-09-18T12:47:00.420Z,2.40
2022-09-18T12:49:50.468Z,6.00
2022-09-18T12:52:20.055Z,5.20
2022-09-18T12:54:56.479Z,2.20
2022-09-18T12:57:50.522Z,2.77
2022-09-18T13:00:18.584Z,3.27
2022-09-18T13:03:17.527Z,4.67
2022-09-18T13:06:01.837Z,4.77
2022-09-18T13:08:34.162Z,4.80
2022-09-18T13:11:05.620Z,3.40
2022-09-18T13:13:35.197Z,2.37
2022-09-18T13:16:07.970Z,2.67
2022-09-18T13:19:14.661Z,3.50
2022-09-18T13:21:44.622Z,4.80
2022-09-18T13:24:15.885Z,6.40
2022-09-18T13:26:45.137Z,3.63
2022-09-18T13:29:49.338Z,3.80
2022-09-18T13:32:26.276Z,15.07
2022-09-18T13:34:54.209Z,5.47
2022-09-18T13:37:22.944Z,5.63
2022-09-18T13:40:10.685Z,4.37
2022-09-18T13:42:43.847Z,7.83
2022-09-18T13:45:13.569Z,4.70
2022-09-18T13:48:17.641Z,2.30
2022-09-18T13:50:55.216Z,10.40
2022-09-18T13:53:38.462Z,6.63
2022-09-18T13:56:08.380Z,7.13
2022-09-18T13:58:47.394Z,4.20
2022-09-18T14:01:43.008Z,4.87
2022-09-18T14:04:40.828Z,3.47
2022-09-18T14:07:19.745Z,4.17
2022-09-18T14:09:53.553Z,3.77
2022-09-18T14:12:28.425Z,4.67
2022-09-18T14:15:08.560Z,3.20
2022-09-18T14:17:37.111Z,5.40
2022-09-18T14:20:19.299Z,3.97
2022-09-18T14:22:45.898Z,2.47
2022-09-18T14:25:14.055Z,3.47
2022-09-18T14:27:50.741Z,4.23
2022-09-18T14:30:21.776Z,5.00
2022-09-18T14:32:54.447Z,2.23
2022-09-18T14:35:32.242Z,2.77
2022-09-18T14:37:58.935Z,4.90
2022-09-18T14:40:27.610Z,5.17
2022-09-18T14:42:54.950Z,3.30
2022-09-18T14:45:28.384Z,2.73
2022-09-18T14:47:55.596Z,9.07
2022-09-18T14:50:37.884Z,4.80
2022-09-18T14:53:24.190Z,3.80
2022-09-18T14:56:07.644Z,4.83
2022-09-18T14:58:46.384Z,9.70
2022-09-18T15:01:25.556Z,15.80
2022-09-18T15:04:03.351Z,5.57
2022-09-18T15:06:44.717Z,3.60
2022-09-18T15:09:14.702Z,5.90
2022-09-18T15:12:01.232Z,10.27
2022-09-18T15:14:47.381Z,7.77
2022-09-18T15:17:33.812Z,6.63
2022-09-18T15:20:16.101Z,7.90
2022-09-18T15:22:42.715Z,8.60
2022-09-18T15:25:13.748Z,15.90
2022-09-18T15:27:41.926Z,11.77
2022-09-18T15:30:18.960Z,7.00
2022-09-18T15:32:50.149Z,7.37
2022-09-18T15:35:23.796Z,2.77
2022-09-18T15:38:00.889Z,2.30
2022-09-18T15:40:33.678Z,2.37
2022-09-18T15:43:03.713Z,6.17
2022-09-18T15:45:33.198Z,4.17
2022-09-18T15:48:02.620Z,3.13
2022-09-18T15:50:34.865Z,6.23
2022-09-18T15:53:23.626Z,3.50
2022-09-18T15:55:55.122Z,5.27
2022-09-18T15:58:27.379Z,3.23
2022-09-18T16:00:58.104Z,2.20
2022-09-18T16:03:28.073Z,3.07
2022-09-18T16:05:57.778Z,2.43
2022-09-18T16:08:29.707Z,2.57
2022-09-18T16:10:59.609Z,3.90
2022-09-18T16:13:26.025Z,2.13
2022-09-18T16:16:15.902Z,3.63
2022-09-18T16:18:52.480Z,5.53
2022-09-18T16:21:19.696Z,5.13
2022-09-18T16:23:51.398Z,2.13
2022-09-18T16:26:30.883Z,3.43
2022-09-18T16:29:06.740Z,5.53
2022-09-18T16:31:35.972Z,4.63
2022-09-18T16:34:17.829Z,1.60
2022-09-18T16:36:45.868Z,3.57
2022-09-18T16:39:15.116Z,4.13
2022-09-18T16:41:42.279Z,2.70
2022-09-18T16:44:11.642Z,5.87
2022-09-18T16:46:42.268Z,7.90
2022-09-18T16:49:11.497Z,8.10
2022-09-18T16:51:38.433Z,3.73
2022-09-18T16:54:05.484Z,6.07
2022-09-18T16:56:35.314Z,4.93
2022-09-18T16:59:03.562Z,7.23
2022-09-18T17:01:39.601Z,20.87
2022-09-18T17:04:17.170Z,44.17
2022-09-18T17:06:43.694Z,29.80
2022-09-18T17:09:10.230Z,50.27
2022-09-18T17:11:36.780Z,37.80
2022-09-18T17:14:03.767Z,10.40
2022-09-18T17:16:43.774Z,4.90
2022-09-18T17:19:10.958Z,6.60
2022-09-18T17:21:38.957Z,10.17
2022-09-18T17:24:05.961Z,8.20
2022-09-18T17:26:34.650Z,5.33
2022-09-18T17:29:01.522Z,10.40
2022-09-18T17:31:28.368Z,2.57
2022-09-18T17:33:55.774Z,6.37
2022-09-18T17:36:22.603Z,10.10
2022-09-18T17:38:49.413Z,7.77
2022-09-18T17:41:18.965Z,7.40
2022-09-18T17:43:50.300Z,7.60
2022-09-18T17:46:16.884Z,8.17
2022-09-18T17:48:43.433Z,7.43
2022-09-18T17:51:12.871Z,6.73
2022-09-18T17:53:40.631Z,8.57
2022-09-18T17:56:11.501Z,10.13
2022-09-18T17:58:41.061Z,8.27
2022-09-18T18:01:19.057Z,13.90
2022-09-18T18:03:48.493Z,10.53
2022-09-18T18:06:21.551Z,11.07
2022-09-18T18:08:48.556Z,6.77
2022-09-18T18:11:17.414Z,8.20
2022-09-18T18:13:46.742Z,9.53
2022-09-18T18:16:16.365Z,7.27
2022-09-18T18:18:43.600Z,6.53
2022-09-18T18:21:10.553Z,5.00
2022-09-18T18:23:40.765Z,6.17
2022-09-18T18:26:14.419Z,10.97
2022-09-18T18:28:42.187Z,9.80
2022-09-18T18:31:14.407Z,6.13
2022-09-18T18:33:43.307Z,7.57
2022-09-18T18:36:17.970Z,9.30
2022-09-18T18:38:46.599Z,6.53
2022-09-18T18:41:14.953Z,6.03
2022-09-18T18:43:42.098Z,6.83
2022-09-18T18:46:13.228Z,7.90
2022-09-18T18:48:41.588Z,7.27
2022-09-18T18:51:11.344Z,5.87
2022-09-18T18:53:38.897Z,8.60
2022-09-18T18:56:16.968Z,10.00
2022-09-18T18:58:44.192Z,7.47
2022-09-18T19:01:17.904Z,6.20
2022-09-18T19:03:56.253Z,7.47
2022-09-18T19:06:27.309Z,8.33
2022-09-18T19:09:02.199Z,6.53
2022-09-18T19:11:31.799Z,9.43
2022-09-18T19:14:00.560Z,9.30
2022-09-18T19:16:29.245Z,7.77
2022-09-18T19:19:04.861Z,10.93
2022-09-18T19:21:31.982Z,5.03
2022-09-18T19:24:02.979Z,12.57
2022-09-18T19:26:30.518Z,5.70
2022-09-18T19:28:59.766Z,4.83
2022-09-18T19:31:28.550Z,9.40
2022-09-18T19:33:56.367Z,8.63
2022-09-18T19:36:25.130Z,6.10
2022-09-18T19:38:59.294Z,10.70
2022-09-18T19:41:39.055Z,6.90
2022-09-18T19:44:11.696Z,7.97
2022-09-18T19:46:39.177Z,10.20
2022-09-18T19:49:05.750Z,5.97
2022-09-18T19:51:34.334Z,3.63
2022-09-18T19:54:00.882Z,8.43
2022-09-18T19:56:42.582Z,7.80
2022-09-18T19:59:10.427Z,5.70
2022-09-18T20:01:37.089Z,5.43
2022-09-18T20:04:03.866Z,2.83
2022-09-18T20:06:32.520Z,6.50
2022-09-18T20:09:00.780Z,3.17
2022-09-18T20:11:27.680Z,3.83
2022-09-18T20:13:55.309Z,3.57
2022-09-18T20:16:22.651Z,5.90
2022-09-18T20:18:49.478Z,2.53
2022-09-18T20:21:18.538Z,3.53
2022-09-18T20:23:45.953Z,4.13
2022-09-18T20:26:16.213Z,2.23
2022-09-18T20:28:43.252Z,5.40
2022-09-18T20:31:13.193Z,4.47
2022-09-18T20:33:40.111Z,3.67
2022-09-18T20:36:08.322Z,3.83
2022-09-18T20:38:37.331Z,2.97
2022-09-18T20:41:11.008Z,2.00
2022-09-18T20:43:39.760Z,3.50
2022-09-18T20:46:08.392Z,3.63
2022-09-18T20:48:41.419Z,2.87
2022-09-18T20:51:10.740Z,3.40
2022-09-18T20:53:39.286Z,2.20
2022-09-18T20:56:07.210Z,3.13
2022-09-18T20:58:35.257Z,3.73
2022-09-18T21:01:23.069Z,3.60
2022-09-18T21:03:56.575Z,2.13
2022-09-18T21:06:25.746Z,2.30
2022-09-18T21:08:54.126Z,3.67
2022-09-18T21:11:31.634Z,2.40
2022-09-18T21:14:01.170Z,2.67
2022-09-18T21:16:32.066Z,1.87
2022-09-18T21:19:00.410Z,3.93
2022-09-18T21:21:29.026Z,1.20
2022-09-18T21:24:02.610Z,1.80
2022-09-18T21:26:35.615Z,1.40
2022-09-18T21:29:14.598Z,2.03
2022-09-18T21:31:42.805Z,2.07
2022-09-18T21:34:13.859Z,2.27
2022-09-18T21:36:43.391Z,1.20
2022-09-18T21:39:14.381Z,1.20
2022-09-18T21:41:46.124Z,1.53
2022-09-18T21:44:15.166Z,1.77
2022-09-18T21:46:42.885Z,1.27
2022-09-18T21:49:10.150Z,2.43
2022-09-18T21:51:40.325Z,1.70
2022-09-18T21:54:07.918Z,1.27
2022-09-18T21:56:34.825Z,1.23
2022-09-18T21:59:01.494Z,2.57
2022-09-18T22:01:33.502Z,3.23
2022-09-18T22:04:02.239Z,1.03
2022-09-18T22:06:41.772Z,2.23
2022-09-18T22:09:20.968Z,0.93
2022-09-18T22:11:49.399Z,0.97
2022-09-18T22:14:22.833Z,0.70
2022-09-18T22:16:50.603Z,0.87
2022-09-18T22:19:17.706Z,0.80
2022-09-18T22:21:46.759Z,1.20
2022-09-18T22:24:18.818Z,1.03
2022-09-18T22:26:56.979Z,0.90
2022-09-18T22:29:32.149Z,0.70
2022-09-18T22:31:59.567Z,0.63
2022-09-18T22:34:28.556Z,1.00
2022-09-18T22:36:55.912Z,0.70
2022-09-18T22:39:23.397Z,0.70
2022-09-18T22:41:51.560Z,0.93
2022-09-18T22:44:21.353Z,0.60
2022-09-18T22:46:49.525Z,0.70
2022-09-18T22:49:17.558Z,0.63
2022-09-18T22:51:45.500Z,0.60
2022-09-18T22:54:13.604Z,1.57
2022-09-18T22:56:46.921Z,1.77
2022-09-18T22:59:15.523Z,0.60
2022-09-18T23:01:51.133Z,0.67
2022-09-18T23:04:19.674Z,0.60
2022-09-18T23:06:47.878Z,1.03
2022-09-18T23:09:16.014Z,0.80
2022-09-18T23:11:44.742Z,0.53
2022-09-18T23:14:18.430Z,0.40
2022-09-18T23:16:45.139Z,0.63
2022-09-18T23:19:26.079Z,0.60
2022-09-18T23:21:53.661Z,1.13
2022-09-18T23:24:22.132Z,1.63
2022-09-18T23:26:50.765Z,0.70
2022-09-18T23:29:20.923Z,0.80
2022-09-18T23:31:52.930Z,0.70
2022-09-18T23:34:23.537Z,0.60
2022-09-18T23:36:52.054Z,0.70
2022-09-18T23:39:20.294Z,1.00
2022-09-18T23:41:46.927Z,1.60
2022-09-18T23:44:15.562Z,1.47
2022-09-18T23:46:43.329Z,0.70
2022-09-18T23:49:12.281Z,1.90
2022-09-18T23:51:42.358Z,0.80
2022-09-18T23:54:16.730Z,1.33
2022-09-18T23:56:44.555Z,1.10
2022-09-18T23:59:12.306Z,3.37
